Time;durP1;ratioP1;P1;durP2;ratioP2;P2;SDS_P1;SDS_P2;PMS_P1;PMS_P2;Temp;Humidity;BMP_temperature;BMP_pressure;BME280_temperature;BME280_humidity;BME280_pressure;Samples;Min_cycle;Max_cycle;Signal;HPM_P1;HPM_P2
2022/04/06 07:59:11;;;;;;;5.50;3.65;;;;;;;8.99;82.03;100068.31;5280167;28;20394;-70
2022/04/06 08:01:42;;;;;;;14.93;5.47;;;;;;;9.03;81.89;100066.63;5274789;28;20388;-70
2022/04/06 08:04:16;;;;;;;8.10;3.70;;;;;;;9.07;81.28;100070.41;5280088;28;20436;-71
2022/04/06 08:06:48;;;;;;;9.77;4.13;;;;;;;9.08;80.76;100069.31;5272635;28;20051;-69
2022/04/06 08:09:19;;;;;;;6.10;3.85;;;;;;;9.11;81.00;100070.66;5274041;28;20372;-70
2022/04/06 08:11:50;;;;;;;8.88;4.03;;;;;;;9.17;80.74;100071.41;5266560;28;20027;-70
2022/04/06 08:14:21;;;;;;;10.40;3.90;;;;;;;9.16;80.62;100064.22;5275405;28;20121;-70
2022/04/06 08:16:55;;;;;;;7.70;3.53;;;;;;;9.19;80.44;100066.41;5295777;28;20032;-70
2022/04/06 08:19:27;;;;;;;6.60;3.38;;;;;;;9.22;80.70;100061.06;5286801;28;20104;-70
2022/04/06 08:21:58;;;;;;;7.40;3.15;;;;;;;9.23;80.35;100062.75;5275274;28;20104;-71
2022/04/06 08:24:32;;;;;;;10.85;3.85;;;;;;;9.23;80.27;100059.13;5263752;28;20522;-70
2022/04/06 08:27:07;;;;;;;12.05;4.85;;;;;;;9.23;79.94;100059.13;5269546;28;20040;-72
2022/04/06 08:29:38;;;;;;;10.05;3.42;;;;;;;9.24;80.04;100072.66;5279254;28;20052;-69
2022/04/06 08:32:09;;;;;;;9.02;3.50;;;;;;;9.25;80.36;100065.19;5279660;28;20025;-67
2022/04/06 08:34:41;;;;;;;9.77;3.33;;;;;;;9.26;80.22;100069.63;5279619;28;20207;-68
2022/04/06 08:37:12;;;;;;;10.85;3.03;;;;;;;9.27;80.35;100074.84;5278338;28;20033;-68
2022/04/06 08:39:44;;;;;;;12.23;3.60;;;;;;;9.28;80.01;100064.59;5279117;28;20017;-68
2022/04/06 08:42:16;;;;;;;7.90;3.17;;;;;;;9.26;79.89;100069.63;5279522;28;20078;-69
2022/04/06 08:44:47;;;;;;;7.20;3.58;;;;;;;9.28;80.66;100067.34;5261554;28;20091;-68
2022/04/06 08:47:19;;;;;;;8.43;3.28;;;;;;;9.26;80.59;100067.66;5258949;28;20032;-67
2022/04/06 08:49:51;;;;;;;5.90;3.28;;;;;;;9.33;80.54;100065.34;5257837;28;20049;-67
2022/04/06 08:52:23;;;;;;;9.63;3.35;;;;;;;9.36;81.08;100066.69;5258228;28;20056;-68
2022/04/06 08:54:54;;;;;;;6.88;3.50;;;;;;;9.35;80.29;100063.09;5258311;28;20128;-67
2022/04/06 08:57:27;;;;;;;42.75;33.80;;;;;;;9.41;80.11;100050.00;5257036;28;20045;-67
2022/04/06 08:59:58;;;;;;;10.90;4.00;;;;;;;9.42;80.82;100053.59;5259656;28;20437;-67
2022/04/06 09:02:29;;;;;;;7.55;3.22;;;;;;;9.41;80.23;100057.47;5278899;28;20056;-67
2022/04/06 09:05:02;;;;;;;8.60;3.58;;;;;;;9.38;80.94;100056.13;5277886;28;20028;-67
2022/04/06 09:07:34;;;;;;;7.05;3.47;;;;;;;9.45;81.17;100064.88;5278310;28;20071;-67
2022/04/06 09:10:05;;;;;;;7.65;4.18;;;;;;;9.37;81.26;100057.25;5267539;28;20472;-68
2022/04/06 09:12:39;;;;;;;8.18;3.88;;;;;;;9.36;81.88;100058.38;5264037;28;20033;-67
2022/04/06 09:15:12;;;;;;;10.57;3.80;;;;;;;9.36;82.41;100063.94;5265008;28;20048;-68
2022/04/06 09:17:45;;;;;;;8.88;3.47;;;;;;;9.36;82.15;100061.16;5256459;28;20477;-66
2022/04/06 09:20:24;;;;;;;7.63;4.05;;;;;;;9.42;82.50;100043.34;5243535;28;20084;-67
2022/04/06 09:22:55;;;;;;;8.05;3.70;;;;;;;9.43;81.83;100053.28;5244365;28;20036;-68
2022/04/06 09:25:34;;;;;;;7.15;4.05;;;;;;;9.47;82.27;100057.09;5243147;28;20029;-67
2022/04/06 09:28:14;;;;;;;9.98;3.95;;;;;;;9.51;82.43;100058.16;5243875;28;20025;-67
2022/04/06 09:30:47;;;;;;;7.82;3.63;;;;;;;9.50;81.33;100052.91;5243707;28;20037;-66
2022/04/06 09:33:21;;;;;;;8.40;3.50;;;;;;;9.49;81.66;100051.28;5243349;28;20046;-67
2022/04/06 09:35:52;;;;;;;10.27;3.45;;;;;;;9.50;81.21;100052.91;5251915;28;20028;-67
2022/04/06 09:38:27;;;;;;;7.00;3.22;;;;;;;9.49;80.58;100057.63;5264424;28;20024;-68
2022/04/06 09:41:06;;;;;;;8.48;3.28;;;;;;;9.52;81.79;100048.72;5263429;28;20025;-69
2022/04/06 09:43:38;;;;;;;8.68;3.75;;;;;;;9.53;81.94;100055.88;5264357;28;20027;-69
2022/04/06 09:49:18;;;;;;;8.50;4.22;;;;;;;9.55;81.20;100056.41;5264200;28;20037;-70
2022/04/06 09:51:51;;;;;;;12.75;6.05;;;;;;;9.56;81.69;100052.53;5255334;28;20029;-67
2022/04/06 09:54:26;;;;;;;11.45;5.82;;;;;;;9.58;82.44;100050.25;5242271;28;20037;-68
2022/04/06 09:56:58;;;;;;;12.00;4.57;;;;;;;9.61;82.19;100042.47;5242497;28;20148;-68
2022/04/06 09:59:32;;;;;;;7.88;3.25;;;;;;;9.60;83.09;100036.13;5243474;28;20443;-68
2022/04/06 10:02:09;;;;;;;7.50;3.65;;;;;;;9.64;82.64;100037.19;5248191;28;20021;-68
2022/04/06 10:04:43;;;;;;;8.25;3.90;;;;;;;9.68;82.65;100043.72;5263673;28;20032;-68
2022/04/06 10:07:15;;;;;;;11.20;3.55;;;;;;;9.68;82.53;100038.19;5262974;28;20029;-67
2022/04/06 10:09:47;;;;;;;7.85;3.75;;;;;;;9.70;82.61;100032.38;5246885;28;20025;-67
2022/04/06 10:12:18;;;;;;;4.03;2.90;;;;;;;9.69;82.76;100034.31;5246943;28;20428;-67
2022/04/06 10:14:59;;;;;;;9.45;3.10;;;;;;;9.71;82.30;100022.91;5262812;28;20033;-67
2022/04/06 10:17:30;;;;;;;8.15;3.45;;;;;;;9.73;81.93;100017.91;5262866;28;20036;-66
2022/04/06 10:20:09;;;;;;;7.63;3.63;;;;;;;9.75;81.18;100027.56;5263192;28;20461;-67
2022/04/06 10:23:10;;;;;;;10.50;2.80;;;;;;;9.76;81.11;100033.91;5262416;28;20025;-66
2022/04/06 10:26:01;;;;;;;13.35;4.43;;;;;;;9.73;81.01;100018.72;5262328;28;20049;-67
2022/04/06 10:28:33;;;;;;;6.88;3.13;;;;;;;9.73;81.78;100024.25;5262882;28;20033;-68
2022/04/06 10:31:16;;;;;;;10.52;3.17;;;;;;;9.69;81.92;100022.41;5263531;28;20107;-68
2022/04/06 10:33:47;;;;;;;8.52;3.83;;;;;;;9.65;81.25;100022.19;5263533;28;20108;-68
2022/04/06 10:36:26;;;;;;;9.95;3.72;;;;;;;9.64;81.51;100011.41;5262664;28;20100;-68
2022/04/06 10:39:06;;;;;;;9.20;3.42;;;;;;;9.63;82.62;100020.84;5263173;28;20040;-68
2022/04/06 10:41:41;;;;;;;7.28;3.30;;;;;;;9.63;81.99;100018.09;5261856;28;20028;-69
2022/04/06 10:44:39;;;;;;;5.60;2.92;;;;;;;9.71;81.82;100014.63;5256473;28;20033;-68
2022/04/06 10:47:12;;;;;;;8.07;3.60;;;;;;;9.63;82.54;100020.84;5262807;28;20037;-68
2022/04/06 10:50:15;;;;;;;8.98;3.28;;;;;;;9.65;82.61;100011.13;5262451;28;20029;-68
2022/04/06 10:52:47;;;;;;;6.97;3.67;;;;;;;9.63;84.41;100016.13;5263045;28;20029;-68
2022/04/06 10:55:24;;;;;;;5.85;3.40;;;;;;;9.64;84.19;100011.41;5263335;28;20025;-68
2022/04/06 10:58:04;;;;;;;6.22;2.67;;;;;;;9.66;83.91;100007.22;5261822;28;20061;-68
2022/04/06 11:00:39;;;;;;;7.00;3.28;;;;;;;9.71;83.72;100000.78;5247463;28;20044;-69
2022/04/06 11:03:19;;;;;;;7.28;3.83;;;;;;;9.73;83.50;100001.28;5258530;28;20025;-69
2022/04/06 11:05:51;;;;;;;6.60;2.80;;;;;;;9.75;83.86;99999.03;5261304;28;20032;-69
2022/04/06 11:11:45;;;;;;;7.47;3.42;;;;;;;9.74;83.12;99997.38;5239384;28;20049;-67
2022/04/06 11:14:26;;;;;;;7.18;2.80;;;;;;;9.76;83.48;99990.41;5242193;28;20099;-68
2022/04/06 11:16:57;;;;;;;6.35;3.30;;;;;;;9.78;82.34;99988.16;5251355;28;20039;-67
2022/04/06 11:19:30;;;;;;;7.85;2.90;;;;;;;9.80;82.08;99987.88;5261638;28;20063;-69
2022/04/06 11:22:03;;;;;;;6.65;3.33;;;;;;;9.85;82.21;99987.78;5261769;28;20116;-67
2022/04/06 11:24:36;;;;;;;7.75;3.10;;;;;;;9.88;81.71;99970.53;5258891;28;20037;-67
2022/04/06 11:27:07;;;;;;;5.82;3.30;;;;;;;9.95;81.27;99984.00;5261945;28;20033;-68
2022/04/06 11:29:39;;;;;;;4.03;2.85;;;;;;;9.99;81.06;99969.22;5257356;28;20029;-67
2022/04/06 11:32:11;;;;;;;9.30;3.10;;;;;;;10.05;80.76;99969.09;5250116;28;20384;-66
2022/04/06 11:34:42;;;;;;;10.57;3.05;;;;;;;10.06;80.27;99971.59;5250587;28;20527;-67
2022/04/06 11:37:13;;;;;;;8.85;3.22;;;;;;;10.11;79.71;99968.72;5241557;28;20085;-67
2022/04/06 11:39:45;;;;;;;5.90;3.15;;;;;;;10.06;79.96;99966.03;5247518;28;20028;-67
2022/04/06 11:42:22;;;;;;;7.05;2.97;;;;;;;10.10;79.25;99963.47;5261740;28;20048;-67
2022/04/06 11:44:54;;;;;;;4.63;3.00;;;;;;;10.09;78.83;99970.97;5261468;28;20112;-68
2022/04/06 11:47:34;;;;;;;6.35;3.00;;;;;;;10.11;79.54;99967.91;5260821;28;20538;-68
2022/04/06 11:50:12;;;;;;;4.88;3.08;;;;;;;10.13;79.30;99960.09;5255683;28;20135;-68
2022/04/06 11:52:43;;;;;;;15.20;4.40;;;;;;;10.27;79.53;99969.22;5279678;28;20025;-67
2022/04/06 11:55:14;;;;;;;12.77;4.00;;;;;;;10.21;79.12;99956.59;5253757;28;20053;-67
2022/04/06 11:57:46;;;;;;;8.35;3.35;;;;;;;10.23;78.15;99957.94;5256682;28;20049;-67
2022/04/06 12:00:17;;;;;;;9.45;3.10;;;;;;;10.32;78.50;99951.69;5260869;28;20039;-67
2022/04/06 12:02:56;;;;;;;18.10;13.48;;;;;;;10.29;78.15;99947.59;5272692;28;20460;-66
2022/04/06 12:05:27;;;;;;;14.95;7.50;;;;;;;10.28;77.18;99932.09;5282332;28;20055;-66
2022/04/06 12:08:18;;;;;;;7.07;5.72;;;;;;;10.24;77.61;99937.41;5260933;28;20021;-67
2022/04/06 12:10:56;;;;;;;8.30;3.83;;;;;;;10.29;78.42;99935.69;5243906;28;20108;-68
2022/04/06 12:13:30;;;;;;;6.95;3.75;;;;;;;10.30;77.45;99929.00;5257469;28;20476;-67
2022/04/06 12:16:02;;;;;;;8.70;4.80;;;;;;;10.28;77.81;99918.25;5240352;28;20384;-66
2022/04/06 12:18:37;;;;;;;8.18;4.43;;;;;;;10.26;78.38;99931.56;5240563;28;20029;-66
2022/04/06 12:21:19;;;;;;;6.28;4.63;;;;;;;10.34;79.34;99919.75;5246168;28;20044;-66
2022/04/06 12:23:52;;;;;;;6.55;3.60;;;;;;;10.33;78.84;99918.13;5241909;28;20025;-66
2022/04/06 12:26:25;;;;;;;8.02;3.63;;;;;;;10.27;78.83;99916.56;5247528;28;20449;-66
2022/04/06 12:28:59;;;;;;;9.57;3.75;;;;;;;10.34;79.36;99917.00;5242179;28;20029;-67
2022/04/06 12:31:35;;;;;;;5.30;3.83;;;;;;;10.28;79.93;99911.88;5240906;28;20026;-67
2022/04/06 12:34:08;;;;;;;4.70;3.30;;;;;;;10.42;79.66;99913.47;5244359;28;20032;-67
2022/04/06 12:36:48;;;;;;;8.18;4.40;;;;;;;10.31;78.92;99905.72;5239645;28;20503;-67
2022/04/06 12:39:20;;;;;;;5.13;3.70;;;;;;;10.29;78.45;99903.25;5240530;28;20068;-67
2022/04/06 12:42:16;;;;;;;5.82;3.47;;;;;;;10.29;78.82;99897.72;5239743;28;20057;-66
2022/04/06 12:44:58;;;;;;;7.88;3.65;;;;;;;10.32;79.31;99897.06;5242497;28;20519;-67
2022/04/06 12:47:31;;;;;;;4.90;3.60;;;;;;;10.34;78.75;99883.75;5261349;28;20040;-68
2022/04/06 12:50:19;;;;;;;8.82;4.25;;;;;;;10.31;78.64;99881.59;5262866;28;20049;-69
2022/04/06 12:53:07;;;;;;;8.30;3.92;;;;;;;10.35;78.38;99884.56;5249249;28;20057;-65
2022/04/06 12:55:38;;;;;;;8.20;4.65;;;;;;;10.32;78.41;99883.22;5262706;28;20017;-67
2022/04/06 12:58:17;;;;;;;6.85;4.07;;;;;;;10.35;78.72;99877.06;5247357;28;20443;-67
2022/04/06 13:00:58;;;;;;;13.20;10.52;;;;;;;10.41;78.41;99867.50;5255534;28;20451;-68
2022/04/06 13:03:29;;;;;;;11.63;5.38;;;;;;;10.42;78.55;99860.81;5262368;28;20137;-67
2022/04/06 13:06:00;;;;;;;5.47;3.60;;;;;;;10.40;77.32;99854.75;5264376;28;20111;-68
2022/04/06 13:08:32;;;;;;;9.38;4.10;;;;;;;10.38;77.83;99840.41;5264996;28;20446;-67
2022/04/06 13:11:03;;;;;;;6.50;3.60;;;;;;;10.46;77.60;99833.31;5264531;28;20543;-68
2022/04/06 13:13:34;;;;;;;6.57;4.72;;;;;;;10.50;78.00;99833.50;5265078;28;20048;-67
2022/04/06 13:16:05;;;;;;;6.55;3.83;;;;;;;10.55;77.75;99833.38;5253758;28;20029;-67
2022/04/06 13:18:37;;;;;;;4.20;3.33;;;;;;;10.59;76.98;99832.44;5243175;28;20041;-69
2022/04/06 13:21:09;;;;;;;5.22;3.40;;;;;;;10.59;76.70;99837.97;5244261;28;20025;-67
2022/04/06 13:23:40;;;;;;;9.95;5.07;;;;;;;10.60;76.25;99831.28;5259749;28;20025;-67
2022/04/06 13:26:12;;;;;;;5.28;3.38;;;;;;;10.59;76.34;99826.88;5263882;28;20372;-67
2022/04/06 13:28:43;;;;;;;5.32;3.45;;;;;;;10.61;76.29;99826.59;5261988;28;20476;-69
2022/04/06 13:31:15;;;;;;;7.70;5.80;;;;;;;10.61;77.17;99815.50;5249343;28;20029;-68
2022/04/06 13:33:47;;;;;;;9.27;6.10;;;;;;;10.64;76.82;99818.44;5259431;28;20029;-68
2022/04/06 13:36:18;;;;;;;10.52;6.05;;;;;;;10.62;75.92;99829.03;5266129;28;20484;-69
2022/04/06 13:38:52;;;;;;;13.50;6.85;;;;;;;10.58;76.03;99818.88;5283110;28;20021;-70
2022/04/06 13:41:23;;;;;;;8.65;4.20;;;;;;;10.58;76.03;99816.94;5283037;28;20107;-67
2022/04/06 13:43:55;;;;;;;5.70;3.70;;;;;;;10.56;76.05;99804.53;5243589;28;20452;-66
2022/04/06 13:46:26;;;;;;;3.88;3.25;;;;;;;10.56;76.50;99797.03;5242463;28;20522;-68
2022/04/06 13:48:57;;;;;;;6.43;3.78;;;;;;;10.54;76.25;99813.16;5244444;28;20390;-68
2022/04/06 13:51:30;;;;;;;4.07;3.40;;;;;;;10.54;75.99;99809.56;5264388;28;20484;-68
2022/04/06 13:54:03;;;;;;;5.97;3.20;;;;;;;10.52;76.68;99807.09;5262879;28;20024;-68
2022/04/06 13:56:38;;;;;;;6.63;3.50;;;;;;;10.51;76.41;99799.09;5255099;28;20063;-69
2022/04/06 13:59:09;;;;;;;8.10;3.30;;;;;;;10.51;77.08;99788.03;5246604;28;20033;-69
2022/04/06 14:01:41;;;;;;;6.45;3.60;;;;;;;10.51;76.67;99793.56;5250755;28;20349;-67
2022/04/06 14:04:16;;;;;;;6.60;3.70;;;;;;;10.52;76.92;99786.88;5263580;28;20522;-68
2022/04/06 14:06:49;;;;;;;6.00;3.63;;;;;;;10.53;76.81;99785.72;5250408;28;20040;-67
2022/04/06 14:09:22;;;;;;;6.85;3.30;;;;;;;10.51;77.08;99776.94;5255978;28;20025;-67
2022/04/06 14:11:56;;;;;;;4.97;3.70;;;;;;;10.51;76.73;99776.94;5255573;28;20380;-69
2022/04/06 14:14:27;;;;;;;7.80;4.40;;;;;;;10.53;76.57;99763.56;5247250;28;20053;-68
2022/04/06 14:16:59;;;;;;;4.45;3.40;;;;;;;10.53;76.58;99769.94;5270444;28;20118;-67
2022/04/06 14:19:30;;;;;;;6.38;3.33;;;;;;;10.49;75.84;99765.34;5242674;28;20072;-68
2022/04/06 14:22:01;;;;;;;9.80;3.70;;;;;;;10.49;76.02;99755.06;5242267;28;20025;-68
2022/04/06 14:24:33;;;;;;;6.38;4.90;;;;;;;10.52;76.35;99756.38;5256444;28;20033;-67
2022/04/06 14:27:04;;;;;;;5.88;3.50;;;;;;;10.53;76.08;99753.31;5242409;28;20033;-67
2022/04/06 14:29:38;;;;;;;4.03;3.00;;;;;;;10.52;76.04;99745.28;5241786;28;20045;-68
2022/04/06 14:32:10;;;;;;;6.80;4.50;;;;;;;10.56;77.10;99746.31;5244782;28;20025;-67
2022/04/06 14:34:41;;;;;;;4.55;3.20;;;;;;;10.52;76.74;99734.19;5258037;28;20037;-66
2022/04/06 14:37:12;;;;;;;3.70;3.35;;;;;;;10.54;76.00;99738.28;5262936;28;20522;-68
2022/04/06 14:39:44;;;;;;;7.18;3.20;;;;;;;10.55;75.71;99733.56;5255114;28;20067;-69
2022/04/06 14:42:18;;;;;;;5.45;3.85;;;;;;;10.57;76.49;99736.84;5242145;28;20024;-68
2022/04/06 14:44:50;;;;;;;3.70;3.40;;;;;;;10.56;76.31;99726.91;5242594;28;20033;-68
2022/04/06 14:47:22;;;;;;;6.20;3.67;;;;;;;10.52;76.53;99723.13;5241649;28;20044;-68
2022/04/06 14:49:53;;;;;;;4.88;3.90;;;;;;;10.55;76.63;99725.25;5260837;28;20033;-70
2022/04/06 14:52:25;;;;;;;6.53;3.55;;;;;;;10.54;76.73;99720.84;5242474;28;20026;-69
2022/04/06 14:54:59;;;;;;;5.25;3.92;;;;;;;10.50;76.35;99719.84;5242204;28;20033;-69
2022/04/06 14:57:31;;;;;;;5.75;3.60;;;;;;;10.52;76.63;99717.56;5245809;28;20084;-69
2022/04/06 15:00:03;;;;;;;19.63;16.27;;;;;;;10.50;76.59;99714.28;5242642;28;20465;-69
2022/04/06 15:02:35;;;;;;;7.00;3.97;;;;;;;10.47;76.71;99712.16;5258672;28;20029;-69
2022/04/06 15:05:06;;;;;;;5.57;3.65;;;;;;;10.46;76.81;99705.81;5262695;28;20488;-67
2022/04/06 15:07:37;;;;;;;4.38;3.85;;;;;;;10.47;77.45;99703.84;5261900;28;20040;-68
2022/04/06 15:10:10;;;;;;;5.90;3.80;;;;;;;10.46;77.62;99703.03;5257200;28;20056;-68
2022/04/06 15:12:41;;;;;;;5.18;4.15;;;;;;;10.43;77.81;99698.94;5280653;28;20075;-68
2022/04/06 15:15:12;;;;;;;6.55;4.15;;;;;;;10.47;77.67;99698.28;5260182;28;20052;-68
2022/04/06 15:17:44;;;;;;;5.50;4.65;;;;;;;10.44;78.55;99691.44;5261501;28;20437;-69
2022/04/06 15:20:17;;;;;;;4.45;3.67;;;;;;;10.40;78.11;99691.22;5262036;28;20025;-69
2022/04/06 15:22:49;;;;;;;6.40;3.90;;;;;;;10.38;78.65;99685.22;5262721;28;20021;-68
2022/04/06 15:25:23;;;;;;;7.47;3.80;;;;;;;10.37;78.65;99686.31;5242737;28;20056;-68
2022/04/06 15:27:54;;;;;;;5.28;4.78;;;;;;;10.34;79.19;99678.66;5253574;28;20029;-69
2022/04/06 15:30:26;;;;;;;4.10;3.70;;;;;;;10.35;79.26;99680.28;5241768;28;20083;-68
2022/04/06 15:32:57;;;;;;;5.30;4.53;;;;;;;10.32;80.05;99680.91;5255470;28;20061;-68
2022/04/06 15:38:18;;;;;;;6.65;4.80;;;;;;;10.32;81.11;99680.09;5240664;28;20033;-68
2022/04/06 15:40:51;;;;;;;5.45;4.90;;;;;;;10.29;82.11;99670.47;5246318;28;20041;-68
2022/04/06 15:43:23;;;;;;;5.75;5.25;;;;;;;10.22;83.04;99670.88;5241587;28;20091;-67
2022/04/06 15:45:54;;;;;;;5.63;5.13;;;;;;;10.18;84.87;99671.84;5240848;28;20057;-66
2022/04/06 15:48:26;;;;;;;7.30;5.70;;;;;;;10.15;85.42;99664.13;5246811;28;20028;-67
2022/04/06 15:50:57;;;;;;;8.60;5.93;;;;;;;10.13;86.91;99663.66;5262136;28;20025;-67
2022/04/06 15:53:28;;;;;;;8.13;5.78;;;;;;;10.08;87.00;99661.03;5260533;28;20535;-67
2022/04/06 15:56:00;;;;;;;5.95;4.70;;;;;;;10.14;87.53;99645.88;5246168;28;20033;-67
2022/04/06 15:58:33;;;;;;;5.07;4.57;;;;;;;10.17;88.67;99645.25;5241198;28;20461;-67
2022/04/06 16:01:04;;;;;;;7.22;4.72;;;;;;;10.12;88.55;99648.16;5240640;28;20053;-67
2022/04/06 16:03:35;;;;;;;6.07;5.43;;;;;;;10.07;89.20;99646.31;5243355;28;20041;-68
2022/04/06 16:06:09;;;;;;;6.22;5.18;;;;;;;9.98;89.67;99637.97;5258765;28;20596;-68
2022/04/06 16:08:40;;;;;;;5.75;4.72;;;;;;;9.97;90.19;99638.28;5248727;28;20392;-69
2022/04/06 16:11:11;;;;;;;5.50;5.00;;;;;;;9.92;90.86;99636.47;5241587;28;20026;-68
2022/04/06 16:13:43;;;;;;;7.05;4.97;;;;;;;9.83;90.91;99645.84;5241320;28;20066;-67
2022/04/06 16:16:14;;;;;;;9.55;6.88;;;;;;;9.86;91.17;99628.59;5254462;28;20029;-67
2022/04/06 16:18:45;;;;;;;4.88;4.22;;;;;;;9.80;91.34;99647.28;5250589;28;20098;-66
2022/04/06 16:21:17;;;;;;;6.97;4.70;;;;;;;9.82;92.26;99650.56;5249118;28;20150;-68
2022/04/06 16:23:48;;;;;;;4.75;4.32;;;;;;;9.82;91.90;99647.78;5261736;28;20086;-67
2022/04/06 16:26:20;;;;;;;9.40;7.75;;;;;;;9.78;92.14;99650.34;5265364;28;20464;-67
2022/04/06 16:28:51;;;;;;;5.32;4.82;;;;;;;9.71;91.83;99646.38;5246571;28;20368;-67
2022/04/06 16:31:26;;;;;;;6.22;5.05;;;;;;;9.70;93.09;99642.00;5244907;28;20024;-67
2022/04/06 16:33:59;;;;;;;7.45;4.85;;;;;;;9.69;93.83;99648.63;5244380;28;20391;-67
2022/04/06 16:36:33;;;;;;;7.85;5.32;;;;;;;9.64;94.75;99646.00;5247701;28;20468;-67
2022/04/06 16:39:06;;;;;;;6.60;5.07;;;;;;;9.57;95.26;99632.59;5253399;28;20025;-67
2022/04/06 16:41:38;;;;;;;6.57;5.70;;;;;;;9.53;95.89;99637.91;5264266;28;20525;-67
2022/04/06 16:44:09;;;;;;;6.57;5.25;;;;;;;9.50;96.02;99644.09;5245441;28;20018;-67
2022/04/06 16:46:40;;;;;;;6.75;6.05;;;;;;;9.48;96.82;99635.28;5262795;28;20398;-67
2022/04/06 16:49:12;;;;;;;7.97;5.88;;;;;;;9.44;97.50;99645.34;5285302;28;20035;-68
2022/04/06 16:54:37;;;;;;;8.43;5.95;;;;;;;9.44;98.71;99576.16;5244870;28;20458;-68
2022/04/06 16:57:09;;;;;;;5.78;5.30;;;;;;;9.46;98.01;99575.84;5244255;28;20037;-69
2022/04/06 16:59:40;;;;;;;6.70;5.43;;;;;;;9.45;98.61;99555.66;5244611;28;20029;-69
2022/04/06 17:02:11;;;;;;;8.00;5.85;;;;;;;9.34;97.86;99557.03;5243966;28;20022;-69
2022/04/06 17:04:43;;;;;;;7.22;5.63;;;;;;;9.37;98.90;99578.53;5244496;28;20034;-69
2022/04/06 17:07:14;;;;;;;5.85;5.10;;;;;;;9.36;99.03;99572.19;5244021;28;20026;-69
2022/04/06 17:09:45;;;;;;;5.88;5.38;;;;;;;9.33;98.53;99566.44;5243960;28;20358;-69
2022/04/06 17:12:17;;;;;;;6.20;5.53;;;;;;;9.32;97.92;99576.69;5244275;28;20029;-69
2022/04/06 17:14:49;;;;;;;11.55;6.90;;;;;;;9.28;97.93;99569.34;5252092;28;20028;-68
2022/04/06 17:17:23;;;;;;;6.03;5.43;;;;;;;9.32;98.18;99567.59;5248830;28;20483;-68
2022/04/06 17:19:55;;;;;;;7.40;6.60;;;;;;;9.37;98.83;99570.22;5253522;28;20033;-69
2022/04/06 17:22:28;;;;;;;7.97;6.57;;;;;;;9.32;98.74;99559.28;5243989;28;20022;-68
2022/04/06 17:24:59;;;;;;;7.28;5.78;;;;;;;9.33;98.11;99566.44;5245726;28;20033;-68
2022/04/06 17:27:31;;;;;;;6.85;6.22;;;;;;;9.33;98.55;99555.38;5255474;28;20024;-68
2022/04/06 17:30:04;;;;;;;7.18;5.07;;;;;;;9.38;97.64;99559.97;5253415;28;20029;-69
